sensor_id;sensor_type;location;lat;lon;timestamp;P1;durP1;ratioP1;P2;durP2;ratioP2
1048;SDS011;513;51.444;7.196;2023-03-05T00:01:38;13.82;;;3.90;;
1048;SDS011;513;51.444;7.196;2023-03-05T00:04:06;11.77;;;3.22;;
1048;SDS011;513;51.444;7.196;2023-03-05T00:06:35;11.43;;;3.22;;
1048;SDS011;513;51.444;7.196;2023-03-05T00:09:03;10.90;;;3.53;;
1048;SDS011;513;51.444;7.196;2023-03-05T00:11:30;11.27;;;3.70;;
1048;SDS011;513;51.444;7.196;2023-03-05T00:13:58;16.08;;;4.13;;
1048;SDS011;513;51.444;7.196;2023-03-05T00:16:27;13.85;;;4.78;;
1048;SDS011;513;51.444;7.196;2023-03-05T00:18:54;13.15;;;4.72;;
1048;SDS011;513;51.444;7.196;2023-03-05T00:21:23;17.73;;;5.40;;
1048;SDS011;513;51.444;7.196;2023-03-05T00:23:52;15.30;;;4.78;;
1048;SDS011;513;51.444;7.196;2023-03-05T00:26:22;13.10;;;4.93;;
1048;SDS011;513;51.444;7.196;2023-03-05T00:28:50;14.63;;;4.65;;
1048;SDS011;513;51.444;7.196;2023-03-05T00:31:18;14.23;;;5.10;;
1048;SDS011;513;51.444;7.196;2023-03-05T00:33:50;16.48;;;5.22;;
1048;SDS011;513;51.444;7.196;2023-03-05T00:36:19;18.05;;;5.38;;
1048;SDS011;513;51.444;7.196;2023-03-05T00:38:46;14.07;;;5.03;;
1048;SDS011;513;51.444;7.196;2023-03-05T00:41:12;16.38;;;5.80;;
1048;SDS011;513;51.444;7.196;2023-03-05T00:43:40;17.30;;;5.78;;
1048;SDS011;513;51.444;7.196;2023-03-05T00:46:07;17.63;;;6.28;;
1048;SDS011;513;51.444;7.196;2023-03-05T00:48:34;12.85;;;6.45;;
1048;SDS011;513;51.444;7.196;2023-03-05T00:51:01;21.53;;;6.50;;
1048;SDS011;513;51.444;7.196;2023-03-05T00:53:28;17.08;;;6.43;;
1048;SDS011;513;51.444;7.196;2023-03-05T00:55:55;12.38;;;6.10;;
1048;SDS011;513;51.444;7.196;2023-03-05T00:58:21;15.23;;;5.80;;
1048;SDS011;513;51.444;7.196;2023-03-05T01:00:49;10.60;;;5.03;;
1048;SDS011;513;51.444;7.196;2023-03-05T01:03:16;12.68;;;4.47;;
1048;SDS011;513;51.444;7.196;2023-03-05T01:05:43;11.27;;;3.67;;
1048;SDS011;513;51.444;7.196;2023-03-05T01:08:10;10.15;;;3.60;;
1048;SDS011;513;51.444;7.196;2023-03-05T01:10:37;10.85;;;3.67;;
1048;SDS011;513;51.444;7.196;2023-03-05T01:13:03;12.25;;;3.55;;
1048;SDS011;513;51.444;7.196;2023-03-05T01:15:30;8.02;;;2.63;;
1048;SDS011;513;51.444;7.196;2023-03-05T01:17:58;9.77;;;3.60;;
1048;SDS011;513;51.444;7.196;2023-03-05T01:20:25;10.70;;;2.90;;
1048;SDS011;513;51.444;7.196;2023-03-05T01:22:51;10.30;;;3.47;;
1048;SDS011;513;51.444;7.196;2023-03-05T01:25:18;10.90;;;3.40;;
1048;SDS011;513;51.444;7.196;2023-03-05T01:27:45;11.70;;;3.60;;
1048;SDS011;513;51.444;7.196;2023-03-05T01:30:13;11.32;;;3.65;;
1048;SDS011;513;51.444;7.196;2023-03-05T01:32:40;13.02;;;3.63;;
1048;SDS011;513;51.444;7.196;2023-03-05T01:35:09;11.95;;;3.20;;
1048;SDS011;513;51.444;7.196;2023-03-05T01:37:40;9.35;;;3.17;;
1048;SDS011;513;51.444;7.196;2023-03-05T01:40:07;9.80;;;3.17;;
1048;SDS011;513;51.444;7.196;2023-03-05T01:42:35;9.88;;;2.90;;
1048;SDS011;513;51.444;7.196;2023-03-05T01:45:04;13.07;;;3.13;;
1048;SDS011;513;51.444;7.196;2023-03-05T01:47:34;12.38;;;3.50;;
1048;SDS011;513;51.444;7.196;2023-03-05T01:50:01;11.47;;;3.23;;
1048;SDS011;513;51.444;7.196;2023-03-05T01:52:30;11.50;;;3.72;;
1048;SDS011;513;51.444;7.196;2023-03-05T01:55:00;9.38;;;3.47;;
1048;SDS011;513;51.444;7.196;2023-03-05T01:57:30;11.60;;;3.90;;
1048;SDS011;513;51.444;7.196;2023-03-05T02:00:00;10.73;;;4.15;;
1048;SDS011;513;51.444;7.196;2023-03-05T02:02:30;9.85;;;3.88;;
1048;SDS011;513;51.444;7.196;2023-03-05T02:04:59;10.85;;;3.90;;
1048;SDS011;513;51.444;7.196;2023-03-05T02:07:28;10.80;;;4.00;;
1048;SDS011;513;51.444;7.196;2023-03-05T02:09:56;10.60;;;3.80;;
1048;SDS011;513;51.444;7.196;2023-03-05T02:12:23;9.73;;;4.20;;
1048;SDS011;513;51.444;7.196;2023-03-05T02:14:50;8.20;;;3.60;;
1048;SDS011;513;51.444;7.196;2023-03-05T02:17:23;7.93;;;3.83;;
1048;SDS011;513;51.444;7.196;2023-03-05T02:19:52;12.37;;;3.90;;
1048;SDS011;513;51.444;7.196;2023-03-05T02:22:22;8.95;;;3.63;;
1048;SDS011;513;51.444;7.196;2023-03-05T02:24:49;11.00;;;3.72;;
1048;SDS011;513;51.444;7.196;2023-03-05T02:27:16;10.77;;;3.25;;
1048;SDS011;513;51.444;7.196;2023-03-05T02:29:47;8.10;;;3.15;;
1048;SDS011;513;51.444;7.196;2023-03-05T02:32:16;7.78;;;2.65;;
1048;SDS011;513;51.444;7.196;2023-03-05T02:34:42;6.60;;;2.85;;
1048;SDS011;513;51.444;7.196;2023-03-05T02:37:09;6.93;;;2.95;;
1048;SDS011;513;51.444;7.196;2023-03-05T02:39:37;5.57;;;2.15;;
1048;SDS011;513;51.444;7.196;2023-03-05T02:42:04;8.10;;;2.67;;
1048;SDS011;513;51.444;7.196;2023-03-05T02:44:31;8.02;;;2.38;;
1048;SDS011;513;51.444;7.196;2023-03-05T02:46:57;9.30;;;2.47;;
1048;SDS011;513;51.444;7.196;2023-03-05T02:49:24;6.05;;;2.20;;
1048;SDS011;513;51.444;7.196;2023-03-05T02:51:51;7.18;;;2.15;;
1048;SDS011;513;51.444;7.196;2023-03-05T02:54:18;4.90;;;2.10;;
1048;SDS011;513;51.444;7.196;2023-03-05T02:56:46;6.47;;;2.53;;
1048;SDS011;513;51.444;7.196;2023-03-05T02:59:13;6.88;;;1.98;;
1048;SDS011;513;51.444;7.196;2023-03-05T03:01:40;7.47;;;2.03;;
1048;SDS011;513;51.444;7.196;2023-03-05T03:04:06;5.28;;;1.90;;
1048;SDS011;513;51.444;7.196;2023-03-05T03:06:33;4.75;;;1.60;;
1048;SDS011;513;51.444;7.196;2023-03-05T03:09:00;3.95;;;1.70;;
1048;SDS011;513;51.444;7.196;2023-03-05T03:11:27;6.88;;;2.00;;
1048;SDS011;513;51.444;7.196;2023-03-05T03:13:55;5.05;;;1.80;;
1048;SDS011;513;51.444;7.196;2023-03-05T03:16:21;8.52;;;2.80;;
1048;SDS011;513;51.444;7.196;2023-03-05T03:18:48;9.15;;;2.83;;
1048;SDS011;513;51.444;7.196;2023-03-05T03:21:15;7.85;;;2.97;;
1048;SDS011;513;51.444;7.196;2023-03-05T03:23:44;7.43;;;2.83;;
1048;SDS011;513;51.444;7.196;2023-03-05T03:26:10;7.50;;;2.75;;
1048;SDS011;513;51.444;7.196;2023-03-05T03:28:37;7.97;;;3.20;;
1048;SDS011;513;51.444;7.196;2023-03-05T03:31:05;6.88;;;2.85;;
1048;SDS011;513;51.444;7.196;2023-03-05T03:33:32;7.47;;;3.53;;
1048;SDS011;513;51.444;7.196;2023-03-05T03:35:59;8.23;;;2.85;;
1048;SDS011;513;51.444;7.196;2023-03-05T03:38:26;5.90;;;2.70;;
1048;SDS011;513;51.444;7.196;2023-03-05T03:40:52;11.70;;;2.92;;
1048;SDS011;513;51.444;7.196;2023-03-05T03:43:19;6.80;;;2.30;;
1048;SDS011;513;51.444;7.196;2023-03-05T03:45:46;6.38;;;2.22;;
1048;SDS011;513;51.444;7.196;2023-03-05T03:48:14;6.55;;;2.20;;
1048;SDS011;513;51.444;7.196;2023-03-05T03:50:41;7.03;;;2.23;;
1048;SDS011;513;51.444;7.196;2023-03-05T03:53:08;6.95;;;2.10;;
1048;SDS011;513;51.444;7.196;2023-03-05T03:55:38;5.75;;;2.08;;
1048;SDS011;513;51.444;7.196;2023-03-05T03:58:05;7.20;;;2.00;;
1048;SDS011;513;51.444;7.196;2023-03-05T04:00:32;6.70;;;2.40;;
1048;SDS011;513;51.444;7.196;2023-03-05T04:02:59;6.82;;;2.70;;
1048;SDS011;513;51.444;7.196;2023-03-05T04:05:27;8.05;;;2.50;;
1048;SDS011;513;51.444;7.196;2023-03-05T04:07:53;9.18;;;3.03;;
1048;SDS011;513;51.444;7.196;2023-03-05T04:10:22;13.32;;;3.30;;
1048;SDS011;513;51.444;7.196;2023-03-05T04:12:49;8.77;;;3.00;;
1048;SDS011;513;51.444;7.196;2023-03-05T04:15:16;9.40;;;3.17;;
1048;SDS011;513;51.444;7.196;2023-03-05T04:17:42;10.68;;;3.80;;
1048;SDS011;513;51.444;7.196;2023-03-05T04:20:10;13.02;;;4.15;;
1048;SDS011;513;51.444;7.196;2023-03-05T04:22:38;10.55;;;3.90;;
1048;SDS011;513;51.444;7.196;2023-03-05T04:25:05;11.73;;;3.83;;
1048;SDS011;513;51.444;7.196;2023-03-05T04:27:34;8.90;;;4.18;;
1048;SDS011;513;51.444;7.196;2023-03-05T04:30:01;14.00;;;4.38;;
1048;SDS011;513;51.444;7.196;2023-03-05T04:32:29;11.35;;;4.53;;
1048;SDS011;513;51.444;7.196;2023-03-05T04:34:56;9.85;;;4.00;;
1048;SDS011;513;51.444;7.196;2023-03-05T04:37:23;10.63;;;3.97;;
1048;SDS011;513;51.444;7.196;2023-03-05T04:39:52;11.82;;;3.65;;
1048;SDS011;513;51.444;7.196;2023-03-05T04:42:19;11.73;;;4.00;;
1048;SDS011;513;51.444;7.196;2023-03-05T04:44:45;12.60;;;4.43;;
1048;SDS011;513;51.444;7.196;2023-03-05T04:47:12;12.83;;;4.07;;
1048;SDS011;513;51.444;7.196;2023-03-05T04:49:39;15.35;;;5.25;;
1048;SDS011;513;51.444;7.196;2023-03-05T04:52:06;12.75;;;5.40;;
1048;SDS011;513;51.444;7.196;2023-03-05T04:54:33;16.52;;;7.93;;
1048;SDS011;513;51.444;7.196;2023-03-05T04:57:01;18.00;;;8.60;;
1048;SDS011;513;51.444;7.196;2023-03-05T04:59:27;21.73;;;10.52;;
1048;SDS011;513;51.444;7.196;2023-03-05T05:01:54;22.45;;;11.13;;
1048;SDS011;513;51.444;7.196;2023-03-05T05:04:21;22.15;;;11.57;;
1048;SDS011;513;51.444;7.196;2023-03-05T05:06:48;23.13;;;11.95;;
1048;SDS011;513;51.444;7.196;2023-03-05T05:09:15;25.70;;;13.27;;
1048;SDS011;513;51.444;7.196;2023-03-05T05:11:41;27.08;;;13.55;;
1048;SDS011;513;51.444;7.196;2023-03-05T05:14:09;27.50;;;14.38;;
1048;SDS011;513;51.444;7.196;2023-03-05T05:16:36;26.13;;;14.43;;
1048;SDS011;513;51.444;7.196;2023-03-05T05:19:03;29.25;;;14.45;;
1048;SDS011;513;51.444;7.196;2023-03-05T05:21:29;28.97;;;14.30;;
1048;SDS011;513;51.444;7.196;2023-03-05T05:23:56;27.98;;;14.75;;
1048;SDS011;513;51.444;7.196;2023-03-05T05:26:23;30.23;;;15.05;;
1048;SDS011;513;51.444;7.196;2023-03-05T05:28:49;24.90;;;13.60;;
1048;SDS011;513;51.444;7.196;2023-03-05T05:31:17;26.13;;;13.02;;
1048;SDS011;513;51.444;7.196;2023-03-05T05:33:45;23.42;;;12.13;;
1048;SDS011;513;51.444;7.196;2023-03-05T05:36:12;24.20;;;12.73;;
1048;SDS011;513;51.444;7.196;2023-03-05T05:38:40;21.88;;;12.20;;
1048;SDS011;513;51.444;7.196;2023-03-05T05:41:07;19.23;;;11.65;;
1048;SDS011;513;51.444;7.196;2023-03-05T05:43:35;21.33;;;12.40;;
1048;SDS011;513;51.444;7.196;2023-03-05T05:46:03;20.60;;;11.68;;
1048;SDS011;513;51.444;7.196;2023-03-05T05:48:34;24.90;;;11.55;;
1048;SDS011;513;51.444;7.196;2023-03-05T05:51:04;18.73;;;11.30;;
1048;SDS011;513;51.444;7.196;2023-03-05T05:53:31;20.40;;;10.55;;
1048;SDS011;513;51.444;7.196;2023-03-05T05:55:58;19.25;;;10.13;;
1048;SDS011;513;51.444;7.196;2023-03-05T05:58:25;18.35;;;10.10;;
1048;SDS011;513;51.444;7.196;2023-03-05T06:00:52;17.67;;;9.70;;
1048;SDS011;513;51.444;7.196;2023-03-05T06:03:18;20.90;;;10.45;;
1048;SDS011;513;51.444;7.196;2023-03-05T06:05:46;17.35;;;9.43;;
1048;SDS011;513;51.444;7.196;2023-03-05T06:08:13;21.25;;;10.65;;
1048;SDS011;513;51.444;7.196;2023-03-05T06:10:40;17.80;;;10.35;;
1048;SDS011;513;51.444;7.196;2023-03-05T06:13:06;19.45;;;10.38;;
1048;SDS011;513;51.444;7.196;2023-03-05T06:15:33;17.40;;;9.48;;
1048;SDS011;513;51.444;7.196;2023-03-05T06:18:00;18.80;;;9.98;;
1048;SDS011;513;51.444;7.196;2023-03-05T06:20:27;18.98;;;10.13;;
1048;SDS011;513;51.444;7.196;2023-03-05T06:22:55;20.35;;;9.88;;
1048;SDS011;513;51.444;7.196;2023-03-05T06:25:21;18.73;;;8.40;;
1048;SDS011;513;51.444;7.196;2023-03-05T06:27:48;18.80;;;8.60;;
1048;SDS011;513;51.444;7.196;2023-03-05T06:30:15;16.45;;;7.65;;
1048;SDS011;513;51.444;7.196;2023-03-05T06:32:42;15.32;;;6.90;;
1048;SDS011;513;51.444;7.196;2023-03-05T06:35:08;15.27;;;7.37;;
1048;SDS011;513;51.444;7.196;2023-03-05T06:37:35;17.88;;;7.53;;
1048;SDS011;513;51.444;7.196;2023-03-05T06:40:04;13.70;;;5.97;;
1048;SDS011;513;51.444;7.196;2023-03-05T06:42:32;17.48;;;6.28;;
1048;SDS011;513;51.444;7.196;2023-03-05T06:44:59;15.43;;;6.50;;
1048;SDS011;513;51.444;7.196;2023-03-05T06:47:25;17.90;;;6.88;;
1048;SDS011;513;51.444;7.196;2023-03-05T06:49:52;14.02;;;5.85;;
1048;SDS011;513;51.444;7.196;2023-03-05T06:52:20;14.63;;;5.75;;
1048;SDS011;513;51.444;7.196;2023-03-05T06:54:46;14.65;;;5.70;;
1048;SDS011;513;51.444;7.196;2023-03-05T06:57:14;14.48;;;5.57;;
1048;SDS011;513;51.444;7.196;2023-03-05T06:59:41;16.05;;;5.50;;
1048;SDS011;513;51.444;7.196;2023-03-05T07:02:08;13.32;;;5.05;;
1048;SDS011;513;51.444;7.196;2023-03-05T07:04:37;14.23;;;5.30;;
1048;SDS011;513;51.444;7.196;2023-03-05T07:07:04;14.35;;;5.05;;
1048;SDS011;513;51.444;7.196;2023-03-05T07:09:31;12.93;;;4.80;;
1048;SDS011;513;51.444;7.196;2023-03-05T07:11:58;15.93;;;4.77;;
1048;SDS011;513;51.444;7.196;2023-03-05T07:14:26;11.25;;;5.10;;
1048;SDS011;513;51.444;7.196;2023-03-05T07:16:52;11.02;;;4.30;;
1048;SDS011;513;51.444;7.196;2023-03-05T07:19:19;11.47;;;4.80;;
1048;SDS011;513;51.444;7.196;2023-03-05T07:21:46;14.43;;;4.40;;
1048;SDS011;513;51.444;7.196;2023-03-05T07:24:13;11.85;;;4.70;;
1048;SDS011;513;51.444;7.196;2023-03-05T07:26:39;13.15;;;5.15;;
1048;SDS011;513;51.444;7.196;2023-03-05T07:29:06;13.27;;;4.35;;
1048;SDS011;513;51.444;7.196;2023-03-05T07:31:34;13.70;;;4.53;;
1048;SDS011;513;51.444;7.196;2023-03-05T07:34:01;11.27;;;4.40;;
1048;SDS011;513;51.444;7.196;2023-03-05T07:36:29;13.68;;;4.68;;
1048;SDS011;513;51.444;7.196;2023-03-05T07:38:55;10.57;;;4.67;;
1048;SDS011;513;51.444;7.196;2023-03-05T07:41:22;14.10;;;4.43;;
1048;SDS011;513;51.444;7.196;2023-03-05T07:43:49;11.60;;;4.27;;
1048;SDS011;513;51.444;7.196;2023-03-05T07:46:17;12.63;;;4.13;;
1048;SDS011;513;51.444;7.196;2023-03-05T07:48:47;13.32;;;5.10;;
1048;SDS011;513;51.444;7.196;2023-03-05T07:51:14;13.55;;;5.35;;
1048;SDS011;513;51.444;7.196;2023-03-05T07:53:42;15.55;;;6.18;;
1048;SDS011;513;51.444;7.196;2023-03-05T07:56:10;14.93;;;6.05;;
1048;SDS011;513;51.444;7.196;2023-03-05T07:58:37;15.07;;;7.07;;
1048;SDS011;513;51.444;7.196;2023-03-05T08:01:08;17.10;;;8.48;;
1048;SDS011;513;51.444;7.196;2023-03-05T08:03:37;17.90;;;8.82;;
1048;SDS011;513;51.444;7.196;2023-03-05T08:06:06;21.70;;;11.75;;
1048;SDS011;513;51.444;7.196;2023-03-05T08:08:34;24.95;;;12.52;;
1048;SDS011;513;51.444;7.196;2023-03-05T08:11:02;25.80;;;12.85;;
1048;SDS011;513;51.444;7.196;2023-03-05T08:13:29;28.70;;;14.88;;
1048;SDS011;513;51.444;7.196;2023-03-05T08:15:56;28.67;;;15.60;;
1048;SDS011;513;51.444;7.196;2023-03-05T08:18:23;28.27;;;14.40;;
1048;SDS011;513;51.444;7.196;2023-03-05T08:20:49;26.42;;;14.98;;
1048;SDS011;513;51.444;7.196;2023-03-05T08:23:17;20.15;;;13.63;;
1048;SDS011;513;51.444;7.196;2023-03-05T08:25:44;21.35;;;13.45;;
1048;SDS011;513;51.444;7.196;2023-03-05T08:28:11;22.58;;;14.75;;
1048;SDS011;513;51.444;7.196;2023-03-05T08:30:38;22.95;;;15.40;;
1048;SDS011;513;51.444;7.196;2023-03-05T08:33:05;21.90;;;15.10;;
1048;SDS011;513;51.444;7.196;2023-03-05T08:35:32;22.40;;;14.13;;
1048;SDS011;513;51.444;7.196;2023-03-05T08:37:59;21.20;;;15.10;;
1048;SDS011;513;51.444;7.196;2023-03-05T08:40:27;22.13;;;15.65;;
1048;SDS011;513;51.444;7.196;2023-03-05T08:42:53;25.30;;;16.60;;
1048;SDS011;513;51.444;7.196;2023-03-05T08:45:20;26.17;;;16.03;;
1048;SDS011;513;51.444;7.196;2023-03-05T08:47:47;27.98;;;17.90;;
1048;SDS011;513;51.444;7.196;2023-03-05T08:50:14;27.35;;;17.35;;
1048;SDS011;513;51.444;7.196;2023-03-05T08:52:41;32.22;;;18.05;;
1048;SDS011;513;51.444;7.196;2023-03-05T08:55:09;32.38;;;19.83;;
1048;SDS011;513;51.444;7.196;2023-03-05T08:57:38;29.87;;;18.00;;
1048;SDS011;513;51.444;7.196;2023-03-05T09:00:05;27.83;;;19.95;;
1048;SDS011;513;51.444;7.196;2023-03-05T09:02:34;33.08;;;23.23;;
1048;SDS011;513;51.444;7.196;2023-03-05T09:05:01;32.55;;;24.00;;
1048;SDS011;513;51.444;7.196;2023-03-05T09:07:27;33.03;;;24.17;;
1048;SDS011;513;51.444;7.196;2023-03-05T09:09:54;32.70;;;25.48;;
1048;SDS011;513;51.444;7.196;2023-03-05T09:12:21;29.07;;;23.07;;
1048;SDS011;513;51.444;7.196;2023-03-05T09:14:49;28.77;;;22.52;;
1048;SDS011;513;51.444;7.196;2023-03-05T09:17:15;30.00;;;22.95;;
1048;SDS011;513;51.444;7.196;2023-03-05T09:19:42;29.20;;;22.58;;
1048;SDS011;513;51.444;7.196;2023-03-05T09:22:09;28.00;;;21.88;;
1048;SDS011;513;51.444;7.196;2023-03-05T09:24:35;29.92;;;23.83;;
1048;SDS011;513;51.444;7.196;2023-03-05T09:27:02;33.13;;;25.30;;
1048;SDS011;513;51.444;7.196;2023-03-05T09:29:29;29.63;;;23.42;;
1048;SDS011;513;51.444;7.196;2023-03-05T09:31:57;28.30;;;22.25;;
1048;SDS011;513;51.444;7.196;2023-03-05T09:34:24;30.63;;;22.92;;
1048;SDS011;513;51.444;7.196;2023-03-05T09:36:51;32.50;;;23.13;;
1048;SDS011;513;51.444;7.196;2023-03-05T09:39:17;30.60;;;24.58;;
1048;SDS011;513;51.444;7.196;2023-03-05T09:41:50;33.25;;;24.80;;
1048;SDS011;513;51.444;7.196;2023-03-05T09:44:31;31.42;;;24.70;;
1048;SDS011;513;51.444;7.196;2023-03-05T09:47:11;31.80;;;23.80;;
1048;SDS011;513;51.444;7.196;2023-03-05T09:49:54;36.93;;;26.57;;
1048;SDS011;513;51.444;7.196;2023-03-05T09:52:30;39.55;;;27.02;;
1048;SDS011;513;51.444;7.196;2023-03-05T09:55:04;39.10;;;27.55;;
1048;SDS011;513;51.444;7.196;2023-03-05T09:57:40;38.85;;;27.08;;
1048;SDS011;513;51.444;7.196;2023-03-05T10:00:14;41.83;;;29.23;;
1048;SDS011;513;51.444;7.196;2023-03-05T10:02:49;43.10;;;29.97;;
1048;SDS011;513;51.444;7.196;2023-03-05T10:05:21;39.33;;;28.15;;
1048;SDS011;513;51.444;7.196;2023-03-05T10:07:53;36.97;;;25.37;;
1048;SDS011;513;51.444;7.196;2023-03-05T10:10:25;32.78;;;24.23;;
1048;SDS011;513;51.444;7.196;2023-03-05T10:12:58;31.42;;;23.45;;
1048;SDS011;513;51.444;7.196;2023-03-05T10:15:30;30.48;;;23.52;;
1048;SDS011;513;51.444;7.196;2023-03-05T10:18:11;31.65;;;22.67;;
1048;SDS011;513;51.444;7.196;2023-03-05T10:20:47;30.50;;;21.65;;
1048;SDS011;513;51.444;7.196;2023-03-05T10:23:37;27.00;;;18.10;;
1048;SDS011;513;51.444;7.196;2023-03-05T10:26:22;24.77;;;17.38;;
1048;SDS011;513;51.444;7.196;2023-03-05T10:29:01;18.95;;;13.80;;
1048;SDS011;513;51.444;7.196;2023-03-05T10:31:37;19.25;;;13.52;;
1048;SDS011;513;51.444;7.196;2023-03-05T10:37:19;17.02;;;12.65;;
1048;SDS011;513;51.444;7.196;2023-03-05T10:40:01;17.20;;;11.43;;
1048;SDS011;513;51.444;7.196;2023-03-05T10:42:39;17.88;;;12.35;;
1048;SDS011;513;51.444;7.196;2023-03-05T10:45:14;12.77;;;10.13;;
1048;SDS011;513;51.444;7.196;2023-03-05T10:47:43;15.70;;;12.02;;
1048;SDS011;513;51.444;7.196;2023-03-05T10:50:17;12.35;;;9.73;;
1048;SDS011;513;51.444;7.196;2023-03-05T10:52:46;14.25;;;9.55;;
1048;SDS011;513;51.444;7.196;2023-03-05T10:55:18;12.68;;;10.15;;
1048;SDS011;513;51.444;7.196;2023-03-05T10:57:46;11.07;;;9.13;;
1048;SDS011;513;51.444;7.196;2023-03-05T11:00:17;13.35;;;8.10;;
1048;SDS011;513;51.444;7.196;2023-03-05T11:02:56;12.80;;;8.70;;
1048;SDS011;513;51.444;7.196;2023-03-05T11:05:38;13.00;;;8.63;;
1048;SDS011;513;51.444;7.196;2023-03-05T11:08:21;10.10;;;7.78;;
1048;SDS011;513;51.444;7.196;2023-03-05T11:11:09;9.68;;;7.55;;
1048;SDS011;513;51.444;7.196;2023-03-05T11:13:40;9.77;;;7.47;;
1048;SDS011;513;51.444;7.196;2023-03-05T11:16:18;9.02;;;6.35;;
1048;SDS011;513;51.444;7.196;2023-03-05T11:18:46;8.70;;;5.80;;
1048;SDS011;513;51.444;7.196;2023-03-05T11:21:18;8.73;;;5.20;;
1048;SDS011;513;51.444;7.196;2023-03-05T11:24:03;10.13;;;6.45;;
1048;SDS011;513;51.444;7.196;2023-03-05T11:26:34;9.32;;;6.57;;
1048;SDS011;513;51.444;7.196;2023-03-05T11:29:01;9.52;;;6.63;;
1048;SDS011;513;51.444;7.196;2023-03-05T11:31:29;9.43;;;7.03;;
1048;SDS011;513;51.444;7.196;2023-03-05T11:33:58;8.82;;;7.13;;
1048;SDS011;513;51.444;7.196;2023-03-05T11:36:28;9.50;;;7.70;;
1048;SDS011;513;51.444;7.196;2023-03-05T11:38:57;9.05;;;7.03;;
1048;SDS011;513;51.444;7.196;2023-03-05T11:41:28;7.22;;;5.78;;
1048;SDS011;513;51.444;7.196;2023-03-05T11:43:59;5.97;;;4.90;;
1048;SDS011;513;51.444;7.196;2023-03-05T11:46:30;7.65;;;5.18;;
1048;SDS011;513;51.444;7.196;2023-03-05T11:49:03;5.32;;;4.60;;
1048;SDS011;513;51.444;7.196;2023-03-05T11:51:35;5.55;;;3.20;;
1048;SDS011;513;51.444;7.196;2023-03-05T11:54:07;4.00;;;2.42;;
1048;SDS011;513;51.444;7.196;2023-03-05T11:56:40;2.70;;;2.20;;
1048;SDS011;513;51.444;7.196;2023-03-05T11:59:10;4.32;;;2.60;;
1048;SDS011;513;51.444;7.196;2023-03-05T12:01:42;4.63;;;2.78;;
1048;SDS011;513;51.444;7.196;2023-03-05T12:04:12;4.05;;;2.20;;
1048;SDS011;513;51.444;7.196;2023-03-05T12:06:42;3.00;;;2.10;;
1048;SDS011;513;51.444;7.196;2023-03-05T12:09:12;5.57;;;2.60;;
1048;SDS011;513;51.444;7.196;2023-03-05T12:11:46;2.77;;;1.93;;
1048;SDS011;513;51.444;7.196;2023-03-05T12:14:17;3.13;;;2.20;;
1048;SDS011;513;51.444;7.196;2023-03-05T12:16:49;3.17;;;2.03;;
1048;SDS011;513;51.444;7.196;2023-03-05T12:22:15;3.78;;;2.00;;
1048;SDS011;513;51.444;7.196;2023-03-05T12:24:43;4.65;;;2.03;;
1048;SDS011;513;51.444;7.196;2023-03-05T12:27:14;3.83;;;2.10;;
1048;SDS011;513;51.444;7.196;2023-03-05T12:29:56;4.20;;;2.08;;
1048;SDS011;513;51.444;7.196;2023-03-05T12:35:24;3.17;;;2.33;;
1048;SDS011;513;51.444;7.196;2023-03-05T12:44:09;5.57;;;3.35;;
1048;SDS011;513;51.444;7.196;2023-03-05T12:49:43;6.78;;;4.05;;
1048;SDS011;513;51.444;7.196;2023-03-05T12:52:15;4.93;;;3.90;;
1048;SDS011;513;51.444;7.196;2023-03-05T12:54:56;5.30;;;4.20;;
1048;SDS011;513;51.444;7.196;2023-03-05T12:57:36;6.77;;;4.67;;
1048;SDS011;513;51.444;7.196;2023-03-05T13:00:05;6.90;;;4.88;;
1048;SDS011;513;51.444;7.196;2023-03-05T13:02:37;6.18;;;4.40;;
1048;SDS011;513;51.444;7.196;2023-03-05T13:05:13;6.32;;;4.72;;
1048;SDS011;513;51.444;7.196;2023-03-05T13:07:44;4.45;;;3.90;;
1048;SDS011;513;51.444;7.196;2023-03-05T13:10:20;6.87;;;4.63;;
1048;SDS011;513;51.444;7.196;2023-03-05T13:12:49;7.25;;;4.78;;
1048;SDS011;513;51.444;7.196;2023-03-05T13:15:18;6.72;;;4.93;;
1048;SDS011;513;51.444;7.196;2023-03-05T13:17:49;7.13;;;4.85;;
1048;SDS011;513;51.444;7.196;2023-03-05T13:23:14;6.57;;;5.43;;
1048;SDS011;513;51.444;7.196;2023-03-05T13:25:54;6.68;;;5.95;;
1048;SDS011;513;51.444;7.196;2023-03-05T13:28:26;6.45;;;5.50;;
1048;SDS011;513;51.444;7.196;2023-03-05T13:30:55;7.20;;;5.10;;
1048;SDS011;513;51.444;7.196;2023-03-05T13:33:24;6.75;;;5.28;;
1048;SDS011;513;51.444;7.196;2023-03-05T13:35:53;6.87;;;4.87;;
1048;SDS011;513;51.444;7.196;2023-03-05T13:38:21;5.57;;;4.40;;
1048;SDS011;513;51.444;7.196;2023-03-05T13:41:06;5.95;;;4.18;;
1048;SDS011;513;51.444;7.196;2023-03-05T13:43:45;4.97;;;3.92;;
1048;SDS011;513;51.444;7.196;2023-03-05T13:46:13;6.22;;;4.50;;
1048;SDS011;513;51.444;7.196;2023-03-05T13:48:48;5.75;;;4.43;;
1048;SDS011;513;51.444;7.196;2023-03-05T13:51:15;5.82;;;4.72;;
1048;SDS011;513;51.444;7.196;2023-03-05T13:53:42;5.63;;;4.53;;
1048;SDS011;513;51.444;7.196;2023-03-05T13:56:13;5.60;;;4.30;;
1048;SDS011;513;51.444;7.196;2023-03-05T13:58:42;6.15;;;4.80;;
1048;SDS011;513;51.444;7.196;2023-03-05T14:01:13;5.32;;;4.32;;
1048;SDS011;513;51.444;7.196;2023-03-05T14:03:43;7.03;;;5.15;;
1048;SDS011;513;51.444;7.196;2023-03-05T14:06:14;10.77;;;8.43;;
1048;SDS011;513;51.444;7.196;2023-03-05T14:08:47;13.57;;;9.98;;
1048;SDS011;513;51.444;7.196;2023-03-05T14:11:17;10.60;;;8.02;;
1048;SDS011;513;51.444;7.196;2023-03-05T14:13:45;7.05;;;6.20;;
1048;SDS011;513;51.444;7.196;2023-03-05T14:16:14;6.15;;;4.05;;
1048;SDS011;513;51.444;7.196;2023-03-05T14:18:51;5.32;;;4.40;;
1048;SDS011;513;51.444;7.196;2023-03-05T14:21:19;7.13;;;5.35;;
1048;SDS011;513;51.444;7.196;2023-03-05T14:23:46;12.35;;;7.28;;
1048;SDS011;513;51.444;7.196;2023-03-05T14:26:24;11.63;;;7.88;;
1048;SDS011;513;51.444;7.196;2023-03-05T14:28:53;8.77;;;7.00;;
1048;SDS011;513;51.444;7.196;2023-03-05T14:31:23;10.27;;;7.45;;
1048;SDS011;513;51.444;7.196;2023-03-05T14:33:51;9.05;;;7.47;;
1048;SDS011;513;51.444;7.196;2023-03-05T14:36:20;11.40;;;8.68;;
1048;SDS011;513;51.444;7.196;2023-03-05T14:38:49;11.80;;;9.82;;
1048;SDS011;513;51.444;7.196;2023-03-05T14:41:19;13.90;;;10.65;;
1048;SDS011;513;51.444;7.196;2023-03-05T14:43:48;12.45;;;11.05;;
1048;SDS011;513;51.444;7.196;2023-03-05T14:46:15;13.27;;;11.57;;
1048;SDS011;513;51.444;7.196;2023-03-05T14:48:42;12.10;;;10.35;;
1048;SDS011;513;51.444;7.196;2023-03-05T14:51:09;14.47;;;10.77;;
1048;SDS011;513;51.444;7.196;2023-03-05T14:53:37;12.05;;;10.30;;
1048;SDS011;513;51.444;7.196;2023-03-05T14:56:10;13.63;;;11.20;;
1048;SDS011;513;51.444;7.196;2023-03-05T14:58:43;15.50;;;12.65;;
1048;SDS011;513;51.444;7.196;2023-03-05T15:01:11;13.65;;;11.07;;
1048;SDS011;513;51.444;7.196;2023-03-05T15:03:38;14.77;;;11.10;;
1048;SDS011;513;51.444;7.196;2023-03-05T15:06:06;13.02;;;11.10;;
1048;SDS011;513;51.444;7.196;2023-03-05T15:08:41;12.00;;;9.60;;
1048;SDS011;513;51.444;7.196;2023-03-05T15:11:07;9.60;;;8.30;;
1048;SDS011;513;51.444;7.196;2023-03-05T15:13:34;8.63;;;7.30;;
1048;SDS011;513;51.444;7.196;2023-03-05T15:16:01;7.68;;;6.40;;
1048;SDS011;513;51.444;7.196;2023-03-05T15:18:31;7.90;;;5.78;;
1048;SDS011;513;51.444;7.196;2023-03-05T15:20:58;8.47;;;5.93;;
1048;SDS011;513;51.444;7.196;2023-03-05T15:23:26;7.18;;;5.43;;
1048;SDS011;513;51.444;7.196;2023-03-05T15:25:59;8.20;;;6.28;;
1048;SDS011;513;51.444;7.196;2023-03-05T15:28:29;8.48;;;6.90;;
1048;SDS011;513;51.444;7.196;2023-03-05T15:30:56;10.40;;;7.43;;
1048;SDS011;513;51.444;7.196;2023-03-05T15:33:23;7.70;;;6.38;;
1048;SDS011;513;51.444;7.196;2023-03-05T15:35:52;8.93;;;6.47;;
1048;SDS011;513;51.444;7.196;2023-03-05T15:38:20;6.72;;;5.65;;
1048;SDS011;513;51.444;7.196;2023-03-05T15:40:47;8.45;;;6.43;;
1048;SDS011;513;51.444;7.196;2023-03-05T15:43:15;7.03;;;6.07;;
1048;SDS011;513;51.444;7.196;2023-03-05T15:45:42;8.57;;;6.60;;
1048;SDS011;513;51.444;7.196;2023-03-05T15:48:09;9.13;;;6.95;;
1048;SDS011;513;51.444;7.196;2023-03-05T15:50:35;8.52;;;6.55;;